sensor_id;sensor_type;location;lat;lon;timestamp;pressure;altitude;pressure_sealevel;temperature;humidity
38253;BME280;24785;52.372;20.672;2023-06-22T00:00:19;100611.25;;;17.07;100.00
38253;BME280;24785;52.372;20.672;2023-06-22T00:10:42;100592.28;;;17.07;100.00
38253;BME280;24785;52.372;20.672;2023-06-22T00:20:43;100577.41;;;16.95;100.00
38253;BME280;24785;52.372;20.672;2023-06-22T00:30:48;100579.06;;;16.74;100.00
38253;BME280;24785;52.372;20.672;2023-06-22T00:40:49;100586.53;;;16.55;100.00
38253;BME280;24785;52.372;20.672;2023-06-22T00:50:51;100562.50;;;16.53;100.00
38253;BME280;24785;52.372;20.672;2023-06-22T01:00:54;100549.44;;;16.47;100.00
38253;BME280;24785;52.372;20.672;2023-06-22T01:11:10;100553.09;;;16.20;100.00
38253;BME280;24785;52.372;20.672;2023-06-22T01:21:18;100559.66;;;16.27;100.00
38253;BME280;24785;52.372;20.672;2023-06-22T01:31:24;100574.84;;;16.15;100.00
38253;BME280;24785;52.372;20.672;2023-06-22T01:41:26;100591.56;;;16.17;100.00
38253;BME280;24785;52.372;20.672;2023-06-22T01:51:28;100611.78;;;16.05;100.00
38253;BME280;24785;52.372;20.672;2023-06-22T02:01:35;100620.03;;;16.00;100.00
38253;BME280;24785;52.372;20.672;2023-06-22T02:11:41;100620.69;;;16.06;100.00
38253;BME280;24785;52.372;20.672;2023-06-22T02:21:43;100635.22;;;16.10;100.00
38253;BME280;24785;52.372;20.672;2023-06-22T02:31:44;100642.72;;;16.13;100.00
38253;BME280;24785;52.372;20.672;2023-06-22T02:41:45;100645.38;;;16.27;100.00
38253;BME280;24785;52.372;20.672;2023-06-22T02:51:47;100655.72;;;16.92;100.00
38253;BME280;24785;52.372;20.672;2023-06-22T03:01:49;100651.03;;;17.46;100.00
38253;BME280;24785;52.372;20.672;2023-06-22T03:11:50;100639.88;;;17.96;100.00
38253;BME280;24785;52.372;20.672;2023-06-22T03:21:51;100650.28;;;18.45;100.00
38253;BME280;24785;52.372;20.672;2023-06-22T03:31:52;100685.03;;;19.50;100.00
38253;BME280;24785;52.372;20.672;2023-06-22T03:41:53;100779.00;;;20.99;100.00
38253;BME280;24785;52.372;20.672;2023-06-22T03:51:54;100843.25;;;22.72;100.00
38253;BME280;24785;52.372;20.672;2023-06-22T04:01:55;100866.69;;;22.61;100.00
38253;BME280;24785;52.372;20.672;2023-06-22T04:11:56;100873.06;;;22.89;100.00
38253;BME280;24785;52.372;20.672;2023-06-22T04:21:57;100889.91;;;22.91;100.00
38253;BME280;24785;52.372;20.672;2023-06-22T04:31:57;100890.06;;;23.11;100.00
38253;BME280;24785;52.372;20.672;2023-06-22T04:41:59;100885.38;;;24.27;98.63
38253;BME280;24785;52.372;20.672;2023-06-22T04:52:07;100877.75;;;24.67;92.40
38253;BME280;24785;52.372;20.672;2023-06-22T05:02:08;100875.38;;;25.01;86.57
38253;BME280;24785;52.372;20.672;2023-06-22T05:12:09;100881.97;;;24.30;85.63
38253;BME280;24785;52.372;20.672;2023-06-22T05:22:10;100898.56;;;22.93;98.32
38253;BME280;24785;52.372;20.672;2023-06-22T05:32:13;100907.47;;;22.29;100.00
38253;BME280;24785;52.372;20.672;2023-06-22T05:42:14;100903.81;;;22.86;100.00
38253;BME280;24785;52.372;20.672;2023-06-22T05:52:15;100909.84;;;22.55;100.00
38253;BME280;24785;52.372;20.672;2023-06-22T06:02:16;100913.78;;;23.07;100.00
38253;BME280;24785;52.372;20.672;2023-06-22T06:12:17;100920.19;;;22.74;92.17
38253;BME280;24785;52.372;20.672;2023-06-22T06:22:18;100924.88;;;22.86;88.85
38253;BME280;24785;52.372;20.672;2023-06-22T06:32:19;100911.69;;;23.16;82.13
38253;BME280;24785;52.372;20.672;2023-06-22T06:42:20;100907.81;;;23.17;78.78
38253;BME280;24785;52.372;20.672;2023-06-22T06:52:23;100907.78;;;23.69;75.27
38253;BME280;24785;52.372;20.672;2023-06-22T07:02:26;100912.84;;;23.99;73.68
38253;BME280;24785;52.372;20.672;2023-06-22T07:12:30;100928.00;;;23.80;74.73
38253;BME280;24785;52.372;20.672;2023-06-22T07:22:31;100925.81;;;23.86;73.11
38253;BME280;24785;52.372;20.672;2023-06-22T07:32:32;100929.88;;;24.08;68.79
38253;BME280;24785;52.372;20.672;2023-06-22T07:42:33;100935.53;;;23.83;67.31
38253;BME280;24785;52.372;20.672;2023-06-22T07:52:34;100936.75;;;24.30;66.01
38253;BME280;24785;52.372;20.672;2023-06-22T08:02:35;100917.75;;;24.37;63.47
38253;BME280;24785;52.372;20.672;2023-06-22T08:12:36;100912.31;;;24.56;61.29
38253;BME280;24785;52.372;20.672;2023-06-22T08:22:37;100929.28;;;24.77;61.34
38253;BME280;24785;52.372;20.672;2023-06-22T08:32:39;100930.56;;;24.99;58.98
38253;BME280;24785;52.372;20.672;2023-06-22T08:42:40;100949.09;;;25.06;61.40
38253;BME280;24785;52.372;20.672;2023-06-22T08:52:42;100938.47;;;25.20;60.86
38253;BME280;24785;52.372;20.672;2023-06-22T09:02:44;100930.59;;;25.38;60.47
38253;BME280;24785;52.372;20.672;2023-06-22T09:12:45;100938.31;;;25.13;60.37
38253;BME280;24785;52.372;20.672;2023-06-22T09:22:46;100939.75;;;25.65;58.66
38253;BME280;24785;52.372;20.672;2023-06-22T09:32:47;100925.78;;;25.70;59.07
38253;BME280;24785;52.372;20.672;2023-06-22T09:42:48;100928.66;;;25.77;59.16
38253;BME280;24785;52.372;20.672;2023-06-22T09:52:48;100918.63;;;26.08;54.15
38253;BME280;24785;52.372;20.672;2023-06-22T10:02:55;100912.94;;;26.20;54.25
38253;BME280;24785;52.372;20.672;2023-06-22T10:13:10;100928.13;;;26.14;56.77
38253;BME280;24785;52.372;20.672;2023-06-22T10:23:11;100917.38;;;26.28;55.81
38253;BME280;24785;52.372;20.672;2023-06-22T10:33:12;100911.03;;;26.73;52.60
38253;BME280;24785;52.372;20.672;2023-06-22T10:43:13;100905.34;;;26.89;52.58
38253;BME280;24785;52.372;20.672;2023-06-22T10:53:14;100898.69;;;27.16;50.25
38253;BME280;24785;52.372;20.672;2023-06-22T11:03:15;100885.69;;;27.47;47.57
38253;BME280;24785;52.372;20.672;2023-06-22T11:13:16;100879.88;;;27.22;47.68
38253;BME280;24785;52.372;20.672;2023-06-22T11:23:17;100881.16;;;27.32;47.04
38253;BME280;24785;52.372;20.672;2023-06-22T11:33:18;100882.75;;;27.66;48.91
38253;BME280;24785;52.372;20.672;2023-06-22T11:43:19;100893.56;;;27.48;47.57
38253;BME280;24785;52.372;20.672;2023-06-22T11:53:21;100888.03;;;27.85;46.13
38253;BME280;24785;52.372;20.672;2023-06-22T12:03:22;100878.63;;;27.86;46.25
38253;BME280;24785;52.372;20.672;2023-06-22T12:13:23;100859.38;;;28.38;44.57
38253;BME280;24785;52.372;20.672;2023-06-22T12:23:24;100852.78;;;28.02;44.40
38253;BME280;24785;52.372;20.672;2023-06-22T12:33:25;100845.34;;;28.06;45.40
38253;BME280;24785;52.372;20.672;2023-06-22T12:43:26;100851.19;;;28.48;44.00
38253;BME280;24785;52.372;20.672;2023-06-22T12:53:26;100853.69;;;28.75;41.92
38253;BME280;24785;52.372;20.672;2023-06-22T13:03:28;100849.38;;;28.77;41.65
38253;BME280;24785;52.372;20.672;2023-06-22T13:13:28;100842.81;;;29.03;41.85
38253;BME280;24785;52.372;20.672;2023-06-22T13:23:30;100844.66;;;28.81;41.42
38253;BME280;24785;52.372;20.672;2023-06-22T13:33:31;100844.84;;;28.41;39.95
38253;BME280;24785;52.372;20.672;2023-06-22T13:43:32;100838.63;;;28.55;41.49
38253;BME280;24785;52.372;20.672;2023-06-22T13:53:33;100842.00;;;28.30;40.74
38253;BME280;24785;52.372;20.672;2023-06-22T14:03:34;100847.38;;;28.12;42.06
38253;BME280;24785;52.372;20.672;2023-06-22T14:13:35;100847.41;;;28.19;41.85
38253;BME280;24785;52.372;20.672;2023-06-22T14:23:36;100841.34;;;28.51;40.22
38253;BME280;24785;52.372;20.672;2023-06-22T14:33:38;100828.88;;;28.75;39.65
38253;BME280;24785;52.372;20.672;2023-06-22T14:43:43;100832.72;;;29.57;39.43
38253;BME280;24785;52.372;20.672;2023-06-22T14:53:46;100820.13;;;29.95;38.29
38253;BME280;24785;52.372;20.672;2023-06-22T15:03:47;100817.69;;;29.37;40.23
38253;BME280;24785;52.372;20.672;2023-06-22T15:13:48;100811.44;;;29.68;39.99
38253;BME280;24785;52.372;20.672;2023-06-22T15:23:49;100792.78;;;30.51;37.06
38253;BME280;24785;52.372;20.672;2023-06-22T15:33:50;100796.59;;;30.92;36.63
38253;BME280;24785;52.372;20.672;2023-06-22T15:43:50;100808.78;;;28.09;41.98
38253;BME280;24785;52.372;20.672;2023-06-22T15:53:52;100803.91;;;28.43;41.62
38253;BME280;24785;52.372;20.672;2023-06-22T16:03:53;100807.81;;;27.87;42.42
38253;BME280;24785;52.372;20.672;2023-06-22T16:13:54;100801.47;;;28.34;41.42
38253;BME280;24785;52.372;20.672;2023-06-22T16:23:54;100806.72;;;28.53;39.69
38253;BME280;24785;52.372;20.672;2023-06-22T16:33:55;100797.44;;;28.21;39.95
38253;BME280;24785;52.372;20.672;2023-06-22T16:43:58;100792.50;;;28.48;40.96
38253;BME280;24785;52.372;20.672;2023-06-22T16:54:03;100775.16;;;28.44;39.80
38253;BME280;24785;52.372;20.672;2023-06-22T17:04:09;100774.88;;;28.01;39.83
38253;BME280;24785;52.372;20.672;2023-06-22T17:14:11;100770.94;;;28.02;40.08
38253;BME280;24785;52.372;20.672;2023-06-22T17:24:14;100760.09;;;27.72;39.57
38253;BME280;24785;52.372;20.672;2023-06-22T17:34:17;100748.44;;;27.45;39.57
38253;BME280;24785;52.372;20.672;2023-06-22T17:44:26;100761.25;;;26.93;41.52
38253;BME280;24785;52.372;20.672;2023-06-22T17:54:30;100752.81;;;25.93;43.38
38253;BME280;24785;52.372;20.672;2023-06-22T18:04:32;100757.63;;;25.54;45.14
38253;BME280;24785;52.372;20.672;2023-06-22T18:14:33;100763.81;;;24.86;46.91
38253;BME280;24785;52.372;20.672;2023-06-22T18:24:35;100763.09;;;23.99;50.38
38253;BME280;24785;52.372;20.672;2023-06-22T18:34:36;100759.47;;;23.64;51.89
38253;BME280;24785;52.372;20.672;2023-06-22T18:44:40;100761.13;;;23.21;54.88
38253;BME280;24785;52.372;20.672;2023-06-22T19:04:44;100784.34;;;21.98;60.18
38253;BME280;24785;52.372;20.672;2023-06-22T19:15:09;100798.50;;;21.22;65.45
38253;BME280;24785;52.372;20.672;2023-06-22T19:25:26;100803.00;;;20.43;71.91
38253;BME280;24785;52.372;20.672;2023-06-22T19:35:28;100800.53;;;19.83;77.70
38253;BME280;24785;52.372;20.672;2023-06-22T19:45:31;100806.25;;;19.26;84.05
38253;BME280;24785;52.372;20.672;2023-06-22T19:55:32;100799.41;;;18.76;90.53
38253;BME280;24785;52.372;20.672;2023-06-22T20:05:39;100798.19;;;18.34;95.97
38253;BME280;24785;52.372;20.672;2023-06-22T20:15:42;100785.94;;;17.88;100.00
38253;BME280;24785;52.372;20.672;2023-06-22T20:25:43;100783.00;;;17.45;100.00
38253;BME280;24785;52.372;20.672;2023-06-22T20:35:46;100776.22;;;17.03;100.00
38253;BME280;24785;52.372;20.672;2023-06-22T20:45:51;100760.81;;;16.90;100.00
38253;BME280;24785;52.372;20.672;2023-06-22T20:55:54;100739.41;;;16.80;100.00
38253;BME280;24785;52.372;20.672;2023-06-22T21:05:56;100753.31;;;16.37;100.00
38253;BME280;24785;52.372;20.672;2023-06-22T21:15:57;100755.75;;;16.25;100.00
38253;BME280;24785;52.372;20.672;2023-06-22T21:25:58;100744.97;;;15.97;100.00
38253;BME280;24785;52.372;20.672;2023-06-22T21:35:59;100756.28;;;15.86;100.00
38253;BME280;24785;52.372;20.672;2023-06-22T21:46:00;100736.81;;;15.56;100.00
38253;BME280;24785;52.372;20.672;2023-06-22T21:56:01;100754.19;;;15.36;100.00
38253;BME280;24785;52.372;20.672;2023-06-22T22:06:02;100792.47;;;15.25;100.00
38253;BME280;24785;52.372;20.672;2023-06-22T22:16:03;100755.19;;;15.08;100.00
38253;BME280;24785;52.372;20.672;2023-06-22T22:26:06;100766.41;;;14.64;100.00
38253;BME280;24785;52.372;20.672;2023-06-22T22:36:07;100791.00;;;14.38;100.00
38253;BME280;24785;52.372;20.672;2023-06-22T22:46:10;100779.09;;;14.44;100.00
38253;BME280;24785;52.372;20.672;2023-06-22T22:56:11;100761.31;;;14.43;100.00
38253;BME280;24785;52.372;20.672;2023-06-22T23:06:12;100739.56;;;14.35;100.00
38253;BME280;24785;52.372;20.672;2023-06-22T23:16:13;100736.94;;;14.06;100.00
38253;BME280;24785;52.372;20.672;2023-06-22T23:26:14;100725.19;;;13.78;100.00
38253;BME280;24785;52.372;20.672;2023-06-22T23:36:15;100700.75;;;13.69;100.00
38253;BME280;24785;52.372;20.672;2023-06-22T23:46:17;100686.22;;;13.46;100.00
38253;BME280;24785;52.372;20.672;2023-06-22T23:56:20;100685.38;;;13.22;100.00
